Time;durP1;ratioP1;P1;durP2;ratioP2;P2;SDS_P1;SDS_P2;PMS_P1;PMS_P2;Temp;Humidity;BMP_temperature;BMP_pressure;BME280_temperature;BME280_humidity;BME280_pressure;Samples;Min_cycle;Max_cycle;Signal;HPM_P1;HPM_P2
2021/12/10 00:01:22;;;;;;;2.80;1.17;;;;;;;;;;5022439;28;20043;-68
2021/12/10 00:03:52;;;;;;;2.70;1.30;;;;;;;;;;5019859;28;20046;-68
2021/12/10 00:06:22;;;;;;;6.28;1.35;;;;;;;;;;5017185;28;20504;-68
2021/12/10 00:08:52;;;;;;;1.50;0.80;;;;;;;;;;5023122;28;20049;-68
2021/12/10 00:11:22;;;;;;;8.60;1.23;;;;;;;;;;5016077;28;20053;-68
2021/12/10 00:13:51;;;;;;;2.38;1.08;;;;;;;;;;5029280;28;20060;-68
2021/12/10 00:16:20;;;;;;;3.20;1.17;;;;;;;;;;5017957;28;20042;-69
2021/12/10 00:18:53;;;;;;;4.00;1.30;;;;;;;;;;5019198;28;20290;-69
2021/12/10 00:21:22;;;;;;;2.83;1.30;;;;;;;;;;5021105;28;20136;-69
2021/12/10 00:23:54;;;;;;;4.63;0.98;;;;;;;;;;5023733;28;20050;-68
2021/12/10 00:26:22;;;;;;;2.95;1.05;;;;;;;;;;5018247;28;20050;-69
2021/12/10 00:28:51;;;;;;;2.83;1.42;;;;;;;;;;5010413;28;20049;-69
2021/12/10 00:31:31;;;;;;;4.32;0.95;;;;;;;;;;5009896;28;20077;-69
2021/12/10 00:34:02;;;;;;;5.65;1.20;;;;;;;;;;5009892;28;20483;-68
2021/12/10 00:36:31;;;;;;;3.92;1.10;;;;;;;;;;5011401;28;20056;-68
2021/12/10 00:39:02;;;;;;;1.35;0.80;;;;;;;;;;5010945;28;20046;-68
2021/12/10 00:41:30;;;;;;;3.55;1.45;;;;;;;;;;5029820;28;20056;-68
2021/12/10 00:43:58;;;;;;;5.22;1.02;;;;;;;;;;5010567;28;20128;-69
2021/12/10 00:46:26;;;;;;;2.10;1.48;;;;;;;;;;5009345;28;20046;-69
2021/12/10 00:48:55;;;;;;;1.50;1.13;;;;;;;;;;5010995;28;20397;-69
2021/12/10 00:51:24;;;;;;;5.63;1.00;;;;;;;;;;5008915;28;20060;-69
2021/12/10 00:53:52;;;;;;;4.45;1.02;;;;;;;;;;5023182;28;20049;-68
2021/12/10 00:56:22;;;;;;;2.72;0.80;;;;;;;;;;5011286;28;20126;-68
2021/12/10 00:58:50;;;;;;;2.65;1.00;;;;;;;;;;5019127;28;20132;-68
2021/12/10 01:01:21;;;;;;;5.40;1.25;;;;;;;;;;5013919;28;20056;-68
2021/12/10 01:03:51;;;;;;;5.20;1.30;;;;;;;;;;5011729;28;20046;-69
2021/12/10 01:06:20;;;;;;;3.15;1.02;;;;;;;;;;5016953;28;20055;-69
2021/12/10 01:08:51;;;;;;;6.70;1.33;;;;;;;;;;5016774;28;20050;-69
2021/12/10 01:11:22;;;;;;;7.03;1.13;;;;;;;;;;5009618;28;20093;-69
2021/12/10 01:13:55;;;;;;;4.30;1.15;;;;;;;;;;5019097;28;20051;-69
2021/12/10 01:25:04;;;;;;;2.75;1.00;;;;;;;;;;5011095;28;20045;-69
2021/12/10 01:27:34;;;;;;;1.65;0.95;;;;;;;;;;5018975;28;20152;-69
2021/12/10 01:30:07;;;;;;;3.15;0.88;;;;;;;;;;5026610;28;20132;-69
2021/12/10 01:32:37;;;;;;;1.35;1.00;;;;;;;;;;5020111;28;20068;-68
2021/12/10 01:35:07;;;;;;;2.05;1.00;;;;;;;;;;5016761;28;20402;-69
2021/12/10 01:37:35;;;;;;;3.70;0.75;;;;;;;;;;5022496;28;20050;-69
2021/12/10 01:40:05;;;;;;;2.15;1.42;;;;;;;;;;5019624;28;20057;-69
2021/12/10 01:42:41;;;;;;;2.08;0.80;;;;;;;;;;5023902;28;20149;-69
2021/12/10 01:45:18;;;;;;;3.10;0.70;;;;;;;;;;5027463;28;20079;-69
2021/12/10 01:47:47;;;;;;;4.75;1.02;;;;;;;;;;5022759;28;20408;-69
2021/12/10 01:50:16;;;;;;;1.25;0.77;;;;;;;;;;5037118;28;20045;-69
2021/12/10 01:52:44;;;;;;;3.83;1.20;;;;;;;;;;5018247;28;20053;-69
2021/12/10 01:55:14;;;;;;;1.92;0.80;;;;;;;;;;5027791;28;20049;-68
2021/12/10 01:57:42;;;;;;;4.30;1.10;;;;;;;;;;5019883;28;20121;-69
2021/12/10 02:00:13;;;;;;;1.02;0.90;;;;;;;;;;5024744;28;20145;-69
2021/12/10 02:02:43;;;;;;;2.10;0.93;;;;;;;;;;5018789;28;20041;-69
2021/12/10 02:05:12;;;;;;;2.17;0.80;;;;;;;;;;5028233;28;20386;-69
2021/12/10 02:07:41;;;;;;;3.72;0.90;;;;;;;;;;5015831;28;20057;-69
2021/12/10 02:10:10;;;;;;;5.28;1.10;;;;;;;;;;5014008;28;20456;-69
2021/12/10 02:12:39;;;;;;;2.67;1.13;;;;;;;;;;5011765;28;20417;-68
2021/12/10 02:15:10;;;;;;;4.22;2.10;;;;;;;;;;5027993;28;20128;-69
2021/12/10 02:17:41;;;;;;;2.00;0.90;;;;;;;;;;5027815;28;20137;-69
2021/12/10 02:20:11;;;;;;;2.15;0.90;;;;;;;;;;5019932;28;20494;-69
2021/12/10 02:22:41;;;;;;;6.78;1.35;;;;;;;;;;5029258;28;20062;-69
2021/12/10 02:25:09;;;;;;;5.80;1.00;;;;;;;;;;5026442;28;20139;-69
2021/12/10 02:27:38;;;;;;;1.60;1.02;;;;;;;;;;5028376;28;20045;-69
2021/12/10 02:30:08;;;;;;;3.15;1.00;;;;;;;;;;5018854;28;20533;-69
2021/12/10 02:32:36;;;;;;;5.05;0.95;;;;;;;;;;5018207;28;20503;-69
2021/12/10 02:35:06;;;;;;;3.63;1.00;;;;;;;;;;5023721;28;20505;-69
2021/12/10 02:37:34;;;;;;;3.00;0.90;;;;;;;;;;5029778;28;20059;-69
2021/12/10 02:40:04;;;;;;;2.17;1.25;;;;;;;;;;5023283;28;20133;-69
2021/12/10 02:42:33;;;;;;;3.65;1.40;;;;;;;;;;5011900;28;20049;-68
2021/12/10 02:45:01;;;;;;;1.92;1.27;;;;;;;;;;5024722;28;20052;-69
2021/12/10 02:47:29;;;;;;;2.10;1.40;;;;;;;;;;5030005;28;20045;-69
2021/12/10 02:49:58;;;;;;;1.45;1.00;;;;;;;;;;5024272;28;20053;-68
2021/12/10 02:52:27;;;;;;;4.15;1.30;;;;;;;;;;5011982;28;20066;-68
2021/12/10 02:54:58;;;;;;;2.47;0.80;;;;;;;;;;5025528;28;20545;-68
2021/12/10 02:57:29;;;;;;;1.90;1.00;;;;;;;;;;5018614;28;20084;-69
2021/12/10 02:59:57;;;;;;;3.83;0.90;;;;;;;;;;5011921;28;20100;-69
2021/12/10 03:02:26;;;;;;;7.70;1.08;;;;;;;;;;5011164;28;20046;-69
2021/12/10 03:04:55;;;;;;;3.33;0.80;;;;;;;;;;5012056;28;20053;-68
2021/12/10 03:07:23;;;;;;;4.40;1.17;;;;;;;;;;5015802;28;20408;-68
2021/12/10 03:09:52;;;;;;;2.75;0.98;;;;;;;;;;5014135;28;20038;-69
2021/12/10 03:12:21;;;;;;;2.63;1.25;;;;;;;;;;5020100;28;20085;-69
2021/12/10 03:14:52;;;;;;;1.92;1.15;;;;;;;;;;5021320;28;20052;-69
2021/12/10 03:17:22;;;;;;;3.13;0.77;;;;;;;;;;5021343;28;20053;-68
2021/12/10 03:19:51;;;;;;;2.92;1.00;;;;;;;;;;5011927;28;20397;-68
2021/12/10 03:22:19;;;;;;;2.20;0.95;;;;;;;;;;5019116;28;20057;-68
2021/12/10 03:24:48;;;;;;;1.52;0.95;;;;;;;;;;5001993;28;20046;-69
2021/12/10 03:27:16;;;;;;;1.45;0.90;;;;;;;;;;4991292;28;20081;-68
2021/12/10 03:29:45;;;;;;;2.00;1.00;;;;;;;;;;5000426;28;20088;-68
2021/12/10 03:32:30;;;;;;;3.65;1.00;;;;;;;;;;2458407;28;10022857;-69
2021/12/10 03:34:59;;;;;;;1.52;0.90;;;;;;;;;;3617054;28;10001981;-69
2021/12/10 03:37:28;;;;;;;3.83;1.10;;;;;;;;;;4992817;28;20043;-69
2021/12/10 03:39:56;;;;;;;2.60;1.27;;;;;;;;;;4999937;28;20046;-68
2021/12/10 03:42:24;;;;;;;2.72;1.67;;;;;;;;;;4994976;28;20046;-68
2021/12/10 03:44:53;;;;;;;0.90;0.85;;;;;;;;;;4994603;28;20056;-68
2021/12/10 03:47:21;;;;;;;1.30;0.90;;;;;;;;;;4991700;28;20054;-68
2021/12/10 03:49:51;;;;;;;3.30;1.10;;;;;;;;;;5004210;28;20057;-69
2021/12/10 03:52:19;;;;;;;4.20;1.02;;;;;;;;;;5003439;28;20045;-69
2021/12/10 03:54:47;;;;;;;2.85;0.90;;;;;;;;;;5002035;28;20478;-69
2021/12/10 03:57:16;;;;;;;2.05;0.70;;;;;;;;;;5001768;28;20060;-68
2021/12/10 03:59:44;;;;;;;0.73;0.73;;;;;;;;;;4992910;28;20081;-68
2021/12/10 04:02:13;;;;;;;2.40;0.93;;;;;;;;;;4996783;28;20050;-68
2021/12/10 04:04:42;;;;;;;2.33;0.90;;;;;;;;;;5001837;28;20050;-68
2021/12/10 04:07:13;;;;;;;2.17;0.70;;;;;;;;;;4993154;28;20111;-68
2021/12/10 04:09:41;;;;;;;2.10;0.88;;;;;;;;;;4994231;28;20074;-68
2021/12/10 04:12:10;;;;;;;2.00;0.82;;;;;;;;;;4995599;28;20042;-68
2021/12/10 04:14:39;;;;;;;0.73;0.60;;;;;;;;;;5008508;28;20079;-68
2021/12/10 04:17:07;;;;;;;2.58;0.77;;;;;;;;;;5000996;28;20561;-68
2021/12/10 04:19:37;;;;;;;1.92;0.73;;;;;;;;;;5009081;28;20068;-68
2021/12/10 04:22:06;;;;;;;1.58;0.90;;;;;;;;;;4994447;28;20138;-68
2021/12/10 04:24:36;;;;;;;0.90;0.70;;;;;;;;;;5009588;28;20766;-68
2021/12/10 04:27:06;;;;;;;1.77;1.08;;;;;;;;;;5016747;28;20515;-68
2021/12/10 04:29:34;;;;;;;1.73;0.90;;;;;;;;;;5027133;28;20060;-68
2021/12/10 04:32:03;;;;;;;1.65;0.70;;;;;;;;;;5012172;28;20433;-69
2021/12/10 04:34:31;;;;;;;2.10;1.08;;;;;;;;;;5011810;28;20128;-68
2021/12/10 04:37:01;;;;;;;1.85;1.00;;;;;;;;;;5019806;28;20068;-68
2021/12/10 04:39:30;;;;;;;2.58;1.17;;;;;;;;;;5012088;28;20049;-68
2021/12/10 04:41:59;;;;;;;6.47;0.93;;;;;;;;;;5010560;28;20494;-68
2021/12/10 04:44:28;;;;;;;0.93;0.50;;;;;;;;;;5029744;28;20052;-68
2021/12/10 04:46:56;;;;;;;0.98;0.70;;;;;;;;;;5024748;28;20060;-68
2021/12/10 04:49:24;;;;;;;1.50;0.73;;;;;;;;;;5010174;28;20077;-68
2021/12/10 04:51:54;;;;;;;1.63;0.73;;;;;;;;;;5027278;28;20485;-68
2021/12/10 04:54:23;;;;;;;2.15;1.00;;;;;;;;;;5025846;28;20048;-68
2021/12/10 04:56:52;;;;;;;1.48;0.73;;;;;;;;;;5025055;28;20177;-68
2021/12/10 04:59:22;;;;;;;0.88;0.60;;;;;;;;;;5020447;28;20055;-68
2021/12/10 05:01:52;;;;;;;1.20;0.68;;;;;;;;;;5019928;28;20057;-68
2021/12/10 05:04:21;;;;;;;2.25;0.80;;;;;;;;;;5026629;28;20394;-68
2021/12/10 05:06:49;;;;;;;0.98;0.77;;;;;;;;;;5015909;28;20050;-68
2021/12/10 05:09:18;;;;;;;1.58;1.00;;;;;;;;;;5029596;28;20132;-68
2021/12/10 05:11:46;;;;;;;2.33;1.00;;;;;;;;;;5018180;28;20537;-68
2021/12/10 05:14:15;;;;;;;1.35;0.55;;;;;;;;;;5020478;28;20352;-69
2021/12/10 05:16:46;;;;;;;3.42;1.00;;;;;;;;;;5021168;28;20198;-68
2021/12/10 05:19:15;;;;;;;1.48;0.85;;;;;;;;;;5028358;28;20243;-68
2021/12/10 05:21:45;;;;;;;4.47;0.85;;;;;;;;;;5027333;28;20141;-68
2021/12/10 05:24:13;;;;;;;1.27;1.00;;;;;;;;;;5031663;28;20145;-68
2021/12/10 05:26:42;;;;;;;3.65;1.10;;;;;;;;;;5018708;28;20048;-68
2021/12/10 05:29:11;;;;;;;1.40;1.00;;;;;;;;;;5024442;28;20044;-68
2021/12/10 05:31:40;;;;;;;3.03;1.00;;;;;;;;;;5017579;28;20053;-68
2021/12/10 05:34:16;;;;;;;3.17;0.70;;;;;;;;;;5021673;28;20417;-68
2021/12/10 05:36:44;;;;;;;2.10;1.10;;;;;;;;;;5012978;28;20278;-67
2021/12/10 05:39:14;;;;;;;1.95;0.90;;;;;;;;;;5023053;28;20114;-68
2021/12/10 05:41:42;;;;;;;2.45;0.82;;;;;;;;;;5024370;28;20044;-68
2021/12/10 05:44:12;;;;;;;2.72;0.93;;;;;;;;;;5017815;28;20042;-68
2021/12/10 05:46:41;;;;;;;2.05;1.25;;;;;;;;;;5016064;28;20144;-68
2021/12/10 05:49:09;;;;;;;3.38;1.20;;;;;;;;;;5021998;28;20050;-68
2021/12/10 05:51:39;;;;;;;0.95;0.85;;;;;;;;;;5019378;28;20045;-69
2021/12/10 05:54:07;;;;;;;2.75;1.30;;;;;;;;;;5029514;28;20132;-68
2021/12/10 05:56:36;;;;;;;3.88;0.95;;;;;;;;;;5016207;28;20132;-68
2021/12/10 05:59:04;;;;;;;2.25;1.23;;;;;;;;;;5026504;28;20133;-68
2021/12/10 06:01:32;;;;;;;2.10;1.20;;;;;;;;;;5020206;28;20041;-68
2021/12/10 06:04:01;;;;;;;3.47;1.50;;;;;;;;;;5013475;28;20150;-68
2021/12/10 06:06:30;;;;;;;2.28;1.40;;;;;;;;;;5016447;28;20084;-68
2021/12/10 06:09:01;;;;;;;2.50;1.23;;;;;;;;;;5020914;28;20054;-69
2021/12/10 06:11:29;;;;;;;2.80;1.42;;;;;;;;;;5017644;28;20046;-68
2021/12/10 06:13:57;;;;;;;4.90;1.45;;;;;;;;;;5029609;28;20466;-69
2021/12/10 06:16:26;;;;;;;4.18;1.27;;;;;;;;;;5026144;28;20351;-69
2021/12/10 06:18:54;;;;;;;5.55;1.52;;;;;;;;;;5019340;28;20512;-67
2021/12/10 06:21:23;;;;;;;3.92;1.50;;;;;;;;;;5014431;28;20045;-69
2021/12/10 06:23:51;;;;;;;1.90;1.33;;;;;;;;;;5030360;28;20060;-69
2021/12/10 06:26:21;;;;;;;3.05;1.42;;;;;;;;;;5018405;28;20046;-69
2021/12/10 06:28:49;;;;;;;2.95;1.65;;;;;;;;;;5011803;28;20053;-68
2021/12/10 06:31:18;;;;;;;5.68;1.42;;;;;;;;;;5025132;28;20152;-68
2021/12/10 06:33:47;;;;;;;3.28;1.95;;;;;;;;;;5017448;28;20049;-69
2021/12/10 06:36:16;;;;;;;4.60;1.88;;;;;;;;;;5014296;28;20133;-69
2021/12/10 06:38:44;;;;;;;9.23;2.22;;;;;;;;;;5017601;28;20132;-69
2021/12/10 06:41:14;;;;;;;5.10;2.28;;;;;;;;;;5024351;28;20517;-69
2021/12/10 06:43:44;;;;;;;3.47;1.90;;;;;;;;;;5017423;28;20096;-69
2021/12/10 06:46:13;;;;;;;3.20;1.98;;;;;;;;;;5018405;28;20466;-69
2021/12/10 06:48:42;;;;;;;4.45;2.05;;;;;;;;;;5022716;28;20935;-69
2021/12/10 06:51:12;;;;;;;3.80;2.00;;;;;;;;;;5018275;28;20087;-69
2021/12/10 06:53:42;;;;;;;4.68;2.35;;;;;;;;;;5017347;28;20050;-69
2021/12/10 06:56:12;;;;;;;5.72;2.15;;;;;;;;;;5022727;28;20132;-69
2021/12/10 06:58:42;;;;;;;6.25;2.70;;;;;;;;;;5019725;28;20152;-69
2021/12/10 07:01:18;;;;;;;5.28;3.00;;;;;;;;;;5008590;28;20103;-69
2021/12/10 07:03:47;;;;;;;5.45;2.97;;;;;;;;;;5015414;28;20049;-69
2021/12/10 07:06:16;;;;;;;5.72;2.83;;;;;;;;;;5021395;28;20405;-69
2021/12/10 07:08:45;;;;;;;6.95;3.20;;;;;;;;;;5017492;28;20116;-69
2021/12/10 07:11:15;;;;;;;7.68;3.13;;;;;;;;;;5009137;28;20468;-69
2021/12/10 07:13:44;;;;;;;4.63;2.95;;;;;;;;;;5021836;28;20489;-69
2021/12/10 07:16:14;;;;;;;6.35;3.42;;;;;;;;;;5024087;28;20128;-69
2021/12/10 07:18:42;;;;;;;9.10;3.53;;;;;;;;;;5009255;28;20172;-69
2021/12/10 07:21:11;;;;;;;9.77;4.25;;;;;;;;;;5011540;28;20147;-69
2021/12/10 07:23:42;;;;;;;8.55;3.22;;;;;;;;;;5008636;28;20442;-69
2021/12/10 07:26:11;;;;;;;9.85;3.95;;;;;;;;;;5020333;28;20131;-69
2021/12/10 07:28:39;;;;;;;8.98;4.82;;;;;;;;;;5016712;28;20105;-69
2021/12/10 07:31:09;;;;;;;9.43;4.45;;;;;;;;;;5018697;28;20077;-69
2021/12/10 07:33:39;;;;;;;14.25;4.13;;;;;;;;;;5023870;28;20056;-69
2021/12/10 07:36:09;;;;;;;6.90;3.38;;;;;;;;;;5023986;28;20108;-69
2021/12/10 07:38:38;;;;;;;7.13;4.28;;;;;;;;;;5024981;28;20050;-69
2021/12/10 07:41:07;;;;;;;7.07;4.18;;;;;;;;;;5015410;28;20054;-69
2021/12/10 07:43:36;;;;;;;7.50;4.13;;;;;;;;;;5014803;28;20466;-69
2021/12/10 07:46:07;;;;;;;11.43;3.67;;;;;;;;;;5019558;28;20042;-69
2021/12/10 07:48:36;;;;;;;6.80;3.70;;;;;;;;;;5016070;28;20378;-69
2021/12/10 07:51:10;;;;;;;6.15;2.97;;;;;;;;;;5013776;28;20054;-69
2021/12/10 07:53:40;;;;;;;6.00;3.42;;;;;;;;;;5015456;28;20042;-70
2021/12/10 07:56:11;;;;;;;7.75;4.20;;;;;;;;;;5020516;28;20057;-69
2021/12/10 07:58:42;;;;;;;7.00;3.60;;;;;;;;;;5028286;28;20056;-69
2021/12/10 08:01:13;;;;;;;8.98;4.00;;;;;;;;;;5017652;28;20501;-70
2021/12/10 08:03:42;;;;;;;6.60;3.33;;;;;;;;;;5024569;28;20041;-70
2021/12/10 08:06:12;;;;;;;7.72;3.47;;;;;;;;;;5019216;28;20157;-70
2021/12/10 08:08:40;;;;;;;11.15;3.55;;;;;;;;;;5030255;28;20050;-69
2021/12/10 08:11:10;;;;;;;5.40;3.35;;;;;;;;;;5019796;28;20050;-69
2021/12/10 08:13:39;;;;;;;9.73;3.70;;;;;;;;;;5020072;28;20065;-69
2021/12/10 08:16:08;;;;;;;7.30;3.20;;;;;;;;;;5018249;28;20057;-69
2021/12/10 08:18:37;;;;;;;6.43;3.00;;;;;;;;;;5019380;28;20136;-69
2021/12/10 08:21:07;;;;;;;7.80;4.10;;;;;;;;;;5018860;28;20054;-69
2021/12/10 08:23:38;;;;;;;7.82;3.88;;;;;;;;;;5027682;28;20455;-69
2021/12/10 08:26:09;;;;;;;7.15;3.33;;;;;;;;;;5024598;28;20045;-69
2021/12/10 08:28:39;;;;;;;6.90;3.53;;;;;;;;;;5022370;28;20061;-69
2021/12/10 08:31:08;;;;;;;12.07;4.07;;;;;;;;;;5011927;28;20057;-70
2021/12/10 08:33:38;;;;;;;9.25;4.40;;;;;;;;;;5022023;28;20077;-69
2021/12/10 08:36:08;;;;;;;8.05;3.90;;;;;;;;;;5022099;28;20045;-69
2021/12/10 08:38:39;;;;;;;10.13;4.47;;;;;;;;;;5019534;28;20509;-69
2021/12/10 08:41:09;;;;;;;9.35;3.80;;;;;;;;;;5016116;28;20062;-69
2021/12/10 08:43:38;;;;;;;8.18;3.70;;;;;;;;;;5015278;28;20510;-69
2021/12/10 08:46:07;;;;;;;7.18;4.22;;;;;;;;;;5016651;28;20420;-69
2021/12/10 08:48:36;;;;;;;9.82;4.32;;;;;;;;;;5022453;28;20064;-69
2021/12/10 08:51:08;;;;;;;11.73;4.75;;;;;;;;;;5021172;28;20057;-69
2021/12/10 08:53:36;;;;;;;7.18;3.70;;;;;;;;;;5018650;28;20049;-69
2021/12/10 08:56:10;;;;;;;7.75;3.63;;;;;;;;;;5008972;28;20045;-69
2021/12/10 08:58:39;;;;;;;6.95;3.40;;;;;;;;;;5013351;28;20560;-69
2021/12/10 09:01:10;;;;;;;7.22;3.67;;;;;;;;;;5027242;28;20103;-69
2021/12/10 09:03:42;;;;;;;10.55;4.10;;;;;;;;;;5013142;28;20049;-69
2021/12/10 09:06:12;;;;;;;10.85;4.43;;;;;;;;;;5013759;28;20053;-69
2021/12/10 09:08:41;;;;;;;10.05;3.67;;;;;;;;;;5020663;28;20460;-69
2021/12/10 09:11:12;;;;;;;8.13;4.28;;;;;;;;;;5025845;28;20075;-69
2021/12/10 09:13:42;;;;;;;7.63;3.90;;;;;;;;;;5019785;28;20081;-69
2021/12/10 09:16:19;;;;;;;10.15;4.53;;;;;;;;;;5021102;28;20069;-69
2021/12/10 09:18:48;;;;;;;10.25;5.05;;;;;;;;;;5012054;28;20145;-69
2021/12/10 09:21:17;;;;;;;10.60;3.80;;;;;;;;;;5020248;28;20049;-69
2021/12/10 09:23:46;;;;;;;7.32;3.58;;;;;;;;;;5024789;28;20082;-69
2021/12/10 09:26:17;;;;;;;8.13;3.30;;;;;;;;;;5020730;28;20140;-69
2021/12/10 09:28:46;;;;;;;8.55;4.28;;;;;;;;;;5022151;28;20516;-69
2021/12/10 09:31:16;;;;;;;11.38;4.43;;;;;;;;;;5021181;28;20140;-69
2021/12/10 09:33:45;;;;;;;7.90;4.30;;;;;;;;;;5027241;28;20466;-69
2021/12/10 09:36:14;;;;;;;6.88;3.88;;;;;;;;;;5021793;28;20066;-69
2021/12/10 09:38:42;;;;;;;7.80;3.75;;;;;;;;;;5031570;28;20528;-69
2021/12/10 09:41:11;;;;;;;8.20;3.35;;;;;;;;;;5018945;28;20056;-69
2021/12/10 09:43:42;;;;;;;7.97;4.68;;;;;;;;;;5023103;28;20060;-69
2021/12/10 09:46:12;;;;;;;5.60;3.33;;;;;;;;;;5021038;28;20050;-69
2021/12/10 09:48:41;;;;;;;10.65;3.80;;;;;;;;;;5024004;28;20116;-69
2021/12/10 09:51:12;;;;;;;8.43;4.00;;;;;;;;;;5030259;28;20053;-69
2021/12/10 09:53:42;;;;;;;9.73;3.60;;;;;;;;;;5026894;28;20054;-69
2021/12/10 09:56:11;;;;;;;10.85;4.03;;;;;;;;;;5025118;28;20485;-69
2021/12/10 09:58:40;;;;;;;5.80;3.45;;;;;;;;;;5013178;28;20077;-69
2021/12/10 10:01:12;;;;;;;6.15;3.78;;;;;;;;;;5027920;28;20064;-69
2021/12/10 10:03:42;;;;;;;9.35;3.85;;;;;;;;;;5016583;28;20053;-69
2021/12/10 10:06:13;;;;;;;6.38;3.30;;;;;;;;;;5019485;28;20054;-69
2021/12/10 10:08:41;;;;;;;9.18;4.20;;;;;;;;;;5016103;28;20049;-69
2021/12/10 10:11:18;;;;;;;13.13;4.15;;;;;;;;;;5027687;28;20049;-69
2021/12/10 10:13:47;;;;;;;9.52;4.13;;;;;;;;;;5029862;28;20077;-69
2021/12/10 10:16:18;;;;;;;8.07;3.08;;;;;;;;;;5031392;28;20475;-69
2021/12/10 10:18:48;;;;;;;7.82;4.28;;;;;;;;;;5033102;28;20060;-69
2021/12/10 10:21:18;;;;;;;8.25;2.90;;;;;;;;;;5019357;28;20053;-69
2021/12/10 10:23:48;;;;;;;8.15;3.80;;;;;;;;;;5022272;28;20149;-69
2021/12/10 10:26:18;;;;;;;6.90;2.97;;;;;;;;;;5021792;28;20046;-69
2021/12/10 10:28:48;;;;;;;7.60;3.22;;;;;;;;;;5022060;28;20088;-69
2021/12/10 10:31:21;;;;;;;9.43;3.40;;;;;;;;;;5020809;28;20476;-69
2021/12/10 10:33:51;;;;;;;5.15;3.13;;;;;;;;;;5019076;28;20433;-69
2021/12/10 10:36:23;;;;;;;5.18;3.35;;;;;;;;;;5020059;28;20052;-68
2021/12/10 10:38:54;;;;;;;8.90;3.42;;;;;;;;;;5015330;28;20477;-72
2021/12/10 10:41:25;;;;;;;9.10;3.88;;;;;;;;;;5016958;28;20485;-72
2021/12/10 10:43:54;;;;;;;7.88;3.47;;;;;;;;;;5025430;28;20497;-71
2021/12/10 10:46:24;;;;;;;11.02;3.78;;;;;;;;;;5028482;28;20057;-71
2021/12/10 10:48:53;;;;;;;7.60;3.70;;;;;;;;;;5022066;28;20045;-72
2021/12/10 10:51:28;;;;;;;5.68;3.10;;;;;;;;;;5019740;28;20049;-72
2021/12/10 10:53:59;;;;;;;5.57;2.88;;;;;;;;;;5022836;28;20481;-71
2021/12/10 10:56:28;;;;;;;6.32;2.78;;;;;;;;;;5030821;28;20049;-71
2021/12/10 10:59:01;;;;;;;5.63;2.20;;;;;;;;;;5020825;28;20045;-72
2021/12/10 11:01:35;;;;;;;8.70;2.78;;;;;;;;;;5028136;28;20071;-71
2021/12/10 11:04:15;;;;;;;4.63;3.28;;;;;;;;;;5024624;28;20057;-71
2021/12/10 11:06:46;;;;;;;7.28;3.10;;;;;;;;;;5030796;28;20073;-71
2021/12/10 11:09:16;;;;;;;6.72;2.50;;;;;;;;;;5028233;28;20123;-71
2021/12/10 11:11:48;;;;;;;4.95;2.45;;;;;;;;;;5020126;28;20050;-72
2021/12/10 11:14:18;;;;;;;6.32;2.80;;;;;;;;;;5027752;28;20046;-72
2021/12/10 11:16:49;;;;;;;6.20;2.65;;;;;;;;;;5024653;28;20053;-72
2021/12/10 11:19:19;;;;;;;6.03;2.50;;;;;;;;;;5030591;28;21206;-71
2021/12/10 11:21:49;;;;;;;8.48;2.65;;;;;;;;;;5017111;28;20053;-72
2021/12/10 11:24:21;;;;;;;6.85;2.75;;;;;;;;;;5016751;28;20418;-71
2021/12/10 11:26:55;;;;;;;9.73;2.67;;;;;;;;;;5019548;28;20158;-71
2021/12/10 11:29:31;;;;;;;5.18;2.63;;;;;;;;;;5012645;28;20054;-71
2021/12/10 11:32:02;;;;;;;4.18;2.22;;;;;;;;;;5012719;28;20426;-72
2021/12/10 11:34:40;;;;;;;4.68;2.40;;;;;;;;;;5017716;28;20846;-71
2021/12/10 11:37:09;;;;;;;5.32;2.88;;;;;;;;;;5012342;28;20418;-72
2021/12/10 11:39:46;;;;;;;6.68;2.25;;;;;;;;;;5017282;28;20382;-72
2021/12/10 11:42:33;;;;;;;11.88;2.47;;;;;;;;;;5027641;28;20046;-72
2021/12/10 11:45:28;;;;;;;6.20;2.38;;;;;;;;;;5013473;28;20085;-72
2021/12/10 11:48:06;;;;;;;6.90;2.22;;;;;;;;;;5023634;28;20472;-72
2021/12/10 11:50:35;;;;;;;5.15;2.63;;;;;;;;;;5012240;28;20133;-72
2021/12/10 11:53:05;;;;;;;6.72;2.40;;;;;;;;;;5022068;28;20053;-72
2021/12/10 11:55:35;;;;;;;5.90;2.40;;;;;;;;;;5018335;28;20140;-72
2021/12/10 11:58:05;;;;;;;5.78;2.30;;;;;;;;;;5013753;28;20076;-72
2021/12/10 12:00:35;;;;;;;3.67;2.35;;;;;;;;;;5023747;28;20045;-72
2021/12/10 12:03:06;;;;;;;5.47;2.72;;;;;;;;;;5014599;28;20137;-72
2021/12/10 12:05:36;;;;;;;6.93;2.40;;;;;;;;;;5015723;28;20042;-72
2021/12/10 12:08:06;;;;;;;4.10;2.35;;;;;;;;;;5013209;28;20448;-68
2021/12/10 12:10:38;;;;;;;5.57;2.38;;;;;;;;;;5023744;28;20046;-68
2021/12/10 12:13:12;;;;;;;5.65;2.47;;;;;;;;;;5012697;28;20500;-68
2021/12/10 12:15:42;;;;;;;9.40;2.63;;;;;;;;;;5020032;28;20050;-68
2021/12/10 12:18:24;;;;;;;7.22;2.55;;;;;;;;;;5012536;28;20552;-68
2021/12/10 12:20:57;;;;;;;11.65;2.88;;;;;;;;;;5022185;28;20045;-68
2021/12/10 12:26:17;;;;;;;4.45;2.22;;;;;;;;;;5019616;28;20049;-68
2021/12/10 12:29:06;;;;;;;9.88;2.30;;;;;;;;;;5013238;28;20069;-68
2021/12/10 12:31:42;;;;;;;9.98;2.47;;;;;;;;;;5012638;28;20050;-68
2021/12/10 12:34:13;;;;;;;5.05;2.33;;;;;;;;;;5030147;28;20132;-68
2021/12/10 12:36:43;;;;;;;3.88;2.05;;;;;;;;;;5027257;28;20131;-68
2021/12/10 12:39:14;;;;;;;3.65;1.90;;;;;;;;;;5021259;28;20041;-68
2021/12/10 12:41:44;;;;;;;6.50;2.83;;;;;;;;;;5021644;28;20054;-68
2021/12/10 12:44:15;;;;;;;4.07;2.40;;;;;;;;;;5019429;28;20057;-68
2021/12/10 12:47:01;;;;;;;10.00;2.58;;;;;;;;;;5021431;28;20050;-68
2021/12/10 12:49:36;;;;;;;10.45;2.50;;;;;;;;;;5018048;28;20584;-68
2021/12/10 12:52:07;;;;;;;6.53;2.30;;;;;;;;;;5016476;28;20046;-68
2021/12/10 12:54:42;;;;;;;6.78;2.22;;;;;;;;;;5018137;28;20054;-68
2021/12/10 12:57:12;;;;;;;5.00;2.40;;;;;;;;;;5013981;28;20143;-68
2021/12/10 13:00:03;;;;;;;6.93;2.42;;;;;;;;;;5021419;28;20305;-68
2021/12/10 13:02:32;;;;;;;4.45;2.53;;;;;;;;;;5006610;28;20506;-68
2021/12/10 13:05:06;;;;;;;7.22;2.63;;;;;;;;;;5019390;28;20053;-72
2021/12/10 13:07:36;;;;;;;7.28;2.38;;;;;;;;;;5013861;28;20100;-72
2021/12/10 13:10:16;;;;;;;8.95;2.95;;;;;;;;;;5012378;28;20072;-72
2021/12/10 13:12:50;;;;;;;5.15;2.47;;;;;;;;;;5018438;28;20057;-69
2021/12/10 13:15:21;;;;;;;9.38;2.45;;;;;;;;;;5029486;28;20048;-69
2021/12/10 13:17:53;;;;;;;4.85;2.90;;;;;;;;;;5016541;28;20049;-69
2021/12/10 13:20:27;;;;;;;3.80;2.35;;;;;;;;;;5020390;28;20064;-69
2021/12/10 13:22:57;;;;;;;4.18;2.30;;;;;;;;;;4968508;28;20053;-73
2021/12/10 13:25:28;;;;;;;6.18;2.50;;;;;;;;;;5007074;28;20058;-69
2021/12/10 13:28:00;;;;;;;7.30;2.60;;;;;;;;;;5016414;28;20053;-70
2021/12/10 13:30:32;;;;;;;4.55;2.42;;;;;;;;;;5018781;28;20626;-69
2021/12/10 13:33:00;;;;;;;3.95;2.80;;;;;;;;;;5012540;28;20080;-69
2021/12/10 13:35:33;;;;;;;4.35;2.33;;;;;;;;;;5015919;28;20056;-70
2021/12/10 13:38:02;;;;;;;4.75;2.83;;;;;;;;;;5019819;28;20107;-70
2021/12/10 13:40:34;;;;;;;4.65;2.45;;;;;;;;;;5018001;28;20147;-69
2021/12/10 13:43:04;;;;;;;5.88;2.88;;;;;;;;;;5008642;28;20046;-70
2021/12/10 13:45:34;;;;;;;5.07;2.10;;;;;;;;;;5018849;28;20056;-69
2021/12/10 13:48:05;;;;;;;3.22;2.50;;;;;;;;;;5005394;28;20049;-69
2021/12/10 13:50:36;;;;;;;6.07;2.80;;;;;;;;;;5012290;28;20050;-69
2021/12/10 13:53:06;;;;;;;4.68;2.47;;;;;;;;;;5008626;28;20053;-69
2021/12/10 13:55:37;;;;;;;5.60;2.95;;;;;;;;;;5019416;28;20049;-69
2021/12/10 13:58:18;;;;;;;6.15;3.30;;;;;;;;;;5007739;28;20050;-72
2021/12/10 14:00:49;;;;;;;4.63;2.55;;;;;;;;;;5014911;28;20144;-69
2021/12/10 14:03:36;;;;;;;6.43;3.00;;;;;;;;;;5016915;28;20274;-69
2021/12/10 14:06:11;;;;;;;5.97;3.28;;;;;;;;;;5014723;28;20053;-71
2021/12/10 14:08:39;;;;;;;11.00;2.85;;;;;;;;;;5022779;28;20052;-69
2021/12/10 14:11:12;;;;;;;5.80;3.05;;;;;;;;;;5023073;28;20046;-70
2021/12/10 14:13:41;;;;;;;4.10;2.72;;;;;;;;;;5016393;28;20053;-70
2021/12/10 14:16:12;;;;;;;4.72;2.60;;;;;;;;;;5015719;28;20408;-70
2021/12/10 14:19:01;;;;;;;7.10;3.35;;;;;;;;;;5011882;28;20061;-69
2021/12/10 14:21:52;;;;;;;10.40;3.00;;;;;;;;;;5014973;28;20079;-69
2021/12/10 14:24:46;;;;;;;10.30;3.33;;;;;;;;;;4992583;28;20507;-69
2021/12/10 14:27:35;;;;;;;11.70;3.45;;;;;;;;;;5000381;28;20054;-68
2021/12/10 14:30:25;;;;;;;7.55;2.97;;;;;;;;;;4994773;28;20093;-69
2021/12/10 14:33:02;;;;;;;6.97;3.92;;;;;;;;;;4994989;28;20066;-69
2021/12/10 14:35:38;;;;;;;5.68;2.85;;;;;;;;;;4997881;28;20152;-70
2021/12/10 14:38:08;;;;;;;9.90;3.40;;;;;;;;;;4992826;28;20054;-69
2021/12/10 14:41:00;;;;;;;7.47;2.90;;;;;;;;;;4996059;28;20060;-70
2021/12/10 14:43:37;;;;;;;12.50;3.95;;;;;;;;;;4993096;28;20046;-71
2021/12/10 14:46:10;;;;;;;5.30;2.90;;;;;;;;;;4999707;28;20553;-68
2021/12/10 14:48:41;;;;;;;8.05;3.30;;;;;;;;;;4991183;28;20053;-68
2021/12/10 14:51:30;;;;;;;7.30;3.40;;;;;;;;;;4997564;28;20078;-69
2021/12/10 14:54:20;;;;;;;6.47;2.40;;;;;;;;;;4991664;28;20073;-69
2021/12/10 14:57:09;;;;;;;8.25;2.70;;;;;;;;;;4988915;28;20402;-69
2021/12/10 14:59:57;;;;;;;9.50;2.75;;;;;;;;;;5001587;28;20148;-68
2021/12/10 15:02:46;;;;;;;4.07;1.80;;;;;;;;;;5003466;28;20508;-68
2021/12/10 15:05:36;;;;;;;4.30;1.67;;;;;;;;;;4999154;28;20054;-69
2021/12/10 15:08:34;;;;;;;6.03;1.90;;;;;;;;;;4996738;28;20140;-69
2021/12/10 15:11:25;;;;;;;4.63;1.65;;;;;;;;;;4994019;28;20049;-71
2021/12/10 15:14:15;;;;;;;7.30;1.63;;;;;;;;;;4995861;28;20503;-71
2021/12/10 15:16:52;;;;;;;3.92;1.33;;;;;;;;;;4997445;28;20057;-69